Time;durP1;ratioP1;P1;durP2;ratioP2;P2;SDS_P1;SDS_P2;PMS_P1;PMS_P2;Temp;Humidity;BMP_temperature;BMP_pressure;BME280_temperature;BME280_humidity;BME280_pressure;Samples;Min_cycle;Max_cycle;Signal;HPM_P1;HPM_P2
2023/09/03 00:02:08;;;;;;;8.48;6.18;;;13.30;99.90;;;;;;5073685;28;20056;-74
2023/09/03 00:04:34;;;;;;;9.10;7.18;;;13.20;99.90;;;;;;5094623;28;20040;-74
2023/09/03 00:06:59;;;;;;;9.68;8.07;;;13.20;99.90;;;;;;5096459;28;20044;-74
2023/09/03 00:09:25;;;;;;;8.73;7.32;;;13.20;99.90;;;;;;5078072;28;20036;-74
2023/09/03 00:11:51;;;;;;;9.82;8.10;;;13.10;99.90;;;;;;5077225;28;20056;-74
2023/09/03 00:14:16;;;;;;;9.63;7.90;;;13.10;99.90;;;;;;5077738;28;20047;-74
2023/09/03 00:16:42;;;;;;;10.50;8.57;;;13.10;99.90;;;;;;5096128;28;20048;-74
2023/09/03 00:19:08;;;;;;;10.27;7.97;;;13.10;99.90;;;;;;5077229;28;20047;-74
2023/09/03 00:21:34;;;;;;;9.75;7.70;;;13.10;99.90;;;;;;5096070;28;20044;-74
2023/09/03 00:24:00;;;;;;;10.32;7.63;;;13.10;99.90;;;;;;5095823;28;20058;-74
2023/09/03 00:26:28;;;;;;;9.98;7.53;;;13.10;99.90;;;;;;5094955;28;20036;-74
2023/09/03 00:28:53;;;;;;;9.48;7.97;;;13.10;99.90;;;;;;5077478;28;20050;-74
2023/09/03 00:31:21;;;;;;;8.95;7.32;;;13.00;99.90;;;;;;5077778;28;20123;-74
2023/09/03 00:33:47;;;;;;;8.48;6.82;;;13.00;99.90;;;;;;5094807;28;20048;-74
2023/09/03 00:36:14;;;;;;;6.38;5.38;;;13.00;99.90;;;;;;5077790;28;20145;-74
2023/09/03 00:38:39;;;;;;;6.40;5.20;;;12.90;99.90;;;;;;5095580;28;20464;-74
2023/09/03 00:41:05;;;;;;;5.60;4.72;;;12.90;99.90;;;;;;5094362;28;20071;-74
2023/09/03 00:43:32;;;;;;;8.18;5.35;;;12.80;99.90;;;;;;5095947;28;20040;-74
2023/09/03 00:46:03;;;;;;;6.68;5.63;;;12.80;99.90;;;;;;5094522;28;20056;-74
2023/09/03 00:48:29;;;;;;;8.70;5.95;;;12.80;99.90;;;;;;5095477;28;20084;-74
2023/09/03 00:51:01;;;;;;;9.18;6.38;;;12.90;99.90;;;;;;5094878;28;20036;-74
2023/09/03 00:53:29;;;;;;;8.27;6.47;;;12.90;99.90;;;;;;5077008;28;20047;-74
2023/09/03 00:55:55;;;;;;;8.48;7.05;;;12.90;99.90;;;;;;5076751;28;20051;-74
2023/09/03 00:58:21;;;;;;;9.05;6.65;;;12.90;99.90;;;;;;5077111;28;20040;-74
2023/09/03 01:00:47;;;;;;;8.20;6.90;;;12.90;99.90;;;;;;5093920;28;20055;-73
2023/09/03 01:03:13;;;;;;;8.02;6.82;;;12.90;99.90;;;;;;5076874;28;20048;-74
2023/09/03 01:05:39;;;;;;;8.85;6.28;;;13.00;99.90;;;;;;5094412;28;20040;-74
2023/09/03 01:08:05;;;;;;;7.18;6.00;;;13.00;99.90;;;;;;5094084;28;20036;-74
2023/09/03 01:10:54;;;;;;;9.40;6.50;;;13.00;99.90;;;;;;5085723;28;20037;-74
2023/09/03 01:13:31;;;;;;;10.35;6.57;;;12.90;99.90;;;;;;5075440;28;20094;-74
2023/09/03 01:16:01;;;;;;;16.48;6.90;;;13.00;99.90;;;;;;5093942;28;20066;-73
2023/09/03 01:18:30;;;;;;;9.52;7.90;;;13.00;99.90;;;;;;5095357;28;20036;-73
2023/09/03 01:21:20;;;;;;;9.93;7.68;;;12.90;99.90;;;;;;5094677;28;20444;-74
2023/09/03 01:24:18;;;;;;;10.48;7.95;;;13.00;99.90;;;;;;5077071;28;20078;-74
2023/09/03 01:27:13;;;;;;;10.77;7.88;;;12.90;99.90;;;;;;5023322;28;20053;-74
2023/09/03 01:29:41;;;;;;;9.52;8.02;;;13.00;99.90;;;;;;5076257;28;20052;-74
2023/09/03 01:32:09;;;;;;;11.07;8.73;;;13.00;99.90;;;;;;5094264;28;20627;-74
2023/09/03 01:34:36;;;;;;;10.45;8.50;;;13.00;99.90;;;;;;5094659;28;20040;-74
2023/09/03 01:37:02;;;;;;;11.10;8.70;;;13.00;99.90;;;;;;5093796;28;20048;-74
2023/09/03 01:39:29;;;;;;;9.60;8.15;;;13.00;99.90;;;;;;5076563;28;20146;-74
2023/09/03 01:41:54;;;;;;;10.43;7.97;;;13.00;99.90;;;;;;5076586;28;20055;-73
2023/09/03 01:44:20;;;;;;;10.10;8.95;;;13.00;99.90;;;;;;5094175;28;20440;-74
2023/09/03 01:46:50;;;;;;;12.65;10.02;;;13.00;99.90;;;;;;5075834;28;20051;-74
2023/09/03 01:49:18;;;;;;;13.00;10.02;;;13.00;99.90;;;;;;5093316;28;20555;-74
2023/09/03 01:51:56;;;;;;;13.05;9.98;;;13.00;99.90;;;;;;5076258;28;20052;-74
2023/09/03 01:54:29;;;;;;;11.85;10.20;;;13.00;99.90;;;;;;5076781;28;20516;-74
2023/09/03 01:57:20;;;;;;;11.07;9.88;;;13.00;99.90;;;;;;5075273;28;20048;-74
2023/09/03 01:59:49;;;;;;;11.82;9.60;;;13.00;99.90;;;;;;5036390;28;20087;-74
2023/09/03 02:02:16;;;;;;;12.63;9.52;;;12.90;99.90;;;;;;5049313;28;20123;-74
2023/09/03 02:04:42;;;;;;;11.65;9.27;;;13.00;99.90;;;;;;5093690;28;20062;-74
2023/09/03 02:07:08;;;;;;;11.27;9.50;;;12.90;99.90;;;;;;5075788;28;20119;-74
2023/09/03 02:09:34;;;;;;;12.77;9.63;;;12.90;99.90;;;;;;5076367;28;20074;-74
2023/09/03 02:12:05;;;;;;;11.73;9.82;;;12.80;99.90;;;;;;5074588;28;20089;-74
2023/09/03 02:14:30;;;;;;;13.07;10.07;;;12.80;99.90;;;;;;5075808;28;20044;-74
2023/09/03 02:16:56;;;;;;;12.57;10.48;;;12.70;99.90;;;;;;5075664;28;20376;-74
2023/09/03 02:19:22;;;;;;;12.13;10.00;;;12.70;99.90;;;;;;5075286;28;20391;-74
2023/09/03 02:21:51;;;;;;;14.25;10.27;;;12.70;99.90;;;;;;5093413;28;20044;-74
2023/09/03 02:24:17;;;;;;;12.93;9.80;;;12.60;99.90;;;;;;5075246;28;20529;-74
2023/09/03 02:26:45;;;;;;;12.30;9.65;;;12.70;99.90;;;;;;5074929;28;20391;-74
2023/09/03 02:29:11;;;;;;;13.05;9.80;;;12.60;99.90;;;;;;5093723;28;20052;-74
2023/09/03 02:31:39;;;;;;;11.00;8.90;;;12.60;99.90;;;;;;5074201;28;20040;-74
2023/09/03 02:34:06;;;;;;;9.98;8.13;;;12.50;99.90;;;;;;5075086;28;20044;-74
2023/09/03 02:36:34;;;;;;;9.93;8.32;;;12.50;99.90;;;;;;5075393;28;20079;-73
2023/09/03 02:39:04;;;;;;;9.38;8.10;;;12.40;99.90;;;;;;5092590;28;20051;-74
2023/09/03 02:41:30;;;;;;;12.20;8.52;;;12.40;99.90;;;;;;5074799;28;20085;-74
2023/09/03 02:44:01;;;;;;;9.50;7.90;;;12.40;99.90;;;;;;5075062;28;20040;-74
2023/09/03 02:46:27;;;;;;;9.65;7.60;;;12.30;99.90;;;;;;5050465;28;20055;-74
2023/09/03 02:48:53;;;;;;;9.55;7.40;;;12.30;99.90;;;;;;5034447;28;20045;-74
2023/09/03 02:51:19;;;;;;;10.00;7.80;;;12.30;99.90;;;;;;5053006;28;20052;-74
2023/09/03 02:53:46;;;;;;;8.93;7.70;;;12.30;99.90;;;;;;5034305;28;20045;-74
2023/09/03 02:56:15;;;;;;;9.27;7.47;;;12.30;99.90;;;;;;5051779;28;20496;-74
2023/09/03 02:58:41;;;;;;;8.27;7.38;;;12.20;99.90;;;;;;5093198;28;20044;-74
2023/09/03 03:01:08;;;;;;;8.77;7.32;;;12.20;99.90;;;;;;5092151;28;20083;-74
2023/09/03 03:03:34;;;;;;;8.68;7.38;;;12.20;99.90;;;;;;5093347;28;20048;-74
2023/09/03 03:06:00;;;;;;;9.00;6.90;;;12.10;99.90;;;;;;5074653;28;20054;-74
2023/09/03 03:08:26;;;;;;;6.90;5.53;;;12.10;99.90;;;;;;5073887;28;20048;-74
2023/09/03 03:11:14;;;;;;;6.25;5.40;;;12.20;99.90;;;;;;5074646;28;20482;-74
2023/09/03 03:13:41;;;;;;;5.97;5.38;;;12.10;99.90;;;;;;5074313;28;20427;-74
2023/09/03 03:16:12;;;;;;;6.57;5.50;;;12.00;99.90;;;;;;5092578;28;20040;-73
2023/09/03 03:18:39;;;;;;;6.38;5.38;;;12.00;99.90;;;;;;5074680;28;20131;-74
2023/09/03 03:21:09;;;;;;;7.22;6.13;;;11.90;99.90;;;;;;5073256;28;20126;-73
2023/09/03 03:23:39;;;;;;;8.13;6.82;;;12.00;99.90;;;;;;5074657;28;20113;-74
2023/09/03 03:26:05;;;;;;;7.50;6.70;;;11.90;99.90;;;;;;5092253;28;20040;-74
2023/09/03 03:28:33;;;;;;;8.48;6.90;;;11.90;99.90;;;;;;5074151;28;20134;-74
2023/09/03 03:31:11;;;;;;;8.65;6.93;;;11.90;99.90;;;;;;5092348;28;20036;-74
2023/09/03 03:33:38;;;;;;;7.97;6.18;;;11.90;99.90;;;;;;5092441;28;20445;-74
2023/09/03 03:36:04;;;;;;;7.55;6.55;;;11.90;99.90;;;;;;5073748;28;20562;-73
2023/09/03 03:38:30;;;;;;;7.32;6.20;;;11.90;99.90;;;;;;5074304;28;20085;-73
2023/09/03 03:41:17;;;;;;;7.80;6.15;;;11.90;99.90;;;;;;5074182;28;20364;-73
2023/09/03 03:43:48;;;;;;;7.60;6.43;;;11.90;99.90;;;;;;5073937;28;20051;-73
2023/09/03 03:46:15;;;;;;;8.90;6.45;;;12.00;99.90;;;;;;5092697;28;20048;-73
2023/09/03 03:48:41;;;;;;;6.68;5.95;;;12.00;99.90;;;;;;5091820;28;20456;-74
2023/09/03 03:51:07;;;;;;;7.72;6.07;;;12.00;99.90;;;;;;5073993;28;20089;-72
2023/09/03 03:53:33;;;;;;;10.15;6.20;;;12.00;99.90;;;;;;5092438;28;20535;-73
2023/09/03 03:56:03;;;;;;;7.93;5.68;;;12.00;99.90;;;;;;5073485;28;20483;-73
2023/09/03 03:58:30;;;;;;;8.40;5.90;;;12.00;99.90;;;;;;5074082;28;20105;-74
2023/09/03 04:00:56;;;;;;;6.50;5.43;;;12.00;99.90;;;;;;5073236;28;20056;-74
2023/09/03 04:03:24;;;;;;;6.65;5.68;;;12.00;99.90;;;;;;5091940;28;20102;-75
2023/09/03 04:06:02;;;;;;;7.28;5.97;;;12.00;99.90;;;;;;5092200;28;20036;-74
2023/09/03 04:08:29;;;;;;;7.32;5.72;;;12.00;99.90;;;;;;5066305;28;20052;-73
2023/09/03 04:10:59;;;;;;;7.90;5.47;;;12.10;99.90;;;;;;5053421;28;20052;-73
2023/09/03 04:13:26;;;;;;;7.45;5.70;;;12.00;99.90;;;;;;5054149;28;20488;-74
2023/09/03 04:15:56;;;;;;;6.53;5.60;;;12.00;99.90;;;;;;5054126;28;20048;-73
2023/09/03 04:18:26;;;;;;;5.70;4.72;;;12.10;99.90;;;;;;5071411;28;20040;-73
2023/09/03 04:20:57;;;;;;;6.95;5.18;;;12.10;99.90;;;;;;5072967;28;20044;-73
2023/09/03 04:23:23;;;;;;;5.60;4.97;;;12.10;99.90;;;;;;5074307;28;20047;-73
2023/09/03 04:25:51;;;;;;;5.80;4.75;;;12.20;99.90;;;;;;5090984;28;20044;-73
2023/09/03 04:28:17;;;;;;;5.47;4.90;;;12.10;99.90;;;;;;5047376;28;20049;-73
2023/09/03 04:30:43;;;;;;;5.97;5.20;;;12.20;99.90;;;;;;5051566;28;20045;-73
2023/09/03 04:33:09;;;;;;;6.53;5.63;;;12.20;99.90;;;;;;5031110;28;20124;-73
2023/09/03 04:35:35;;;;;;;6.35;5.40;;;12.10;99.90;;;;;;5053944;28;20120;-73
2023/09/03 04:38:02;;;;;;;6.47;5.40;;;12.10;99.90;;;;;;5044769;28;20039;-73
2023/09/03 04:40:32;;;;;;;5.97;5.00;;;13.20;99.90;;;;;;5033962;28;20051;-73
2023/09/03 04:42:58;;;;;;;5.57;4.85;;;12.00;99.90;;;;;;5033953;28;20088;-73
2023/09/03 04:45:23;;;;;;;5.65;5.05;;;12.00;99.90;;;;;;5070638;28;20076;-73
2023/09/03 04:47:49;;;;;;;5.40;4.78;;;12.00;99.90;;;;;;5058692;28;20048;-73
2023/09/03 04:50:15;;;;;;;5.97;4.63;;;12.00;99.90;;;;;;5076491;28;20146;-73
2023/09/03 04:52:43;;;;;;;8.25;5.15;;;12.00;99.90;;;;;;5076409;28;20503;-73
2023/09/03 04:55:09;;;;;;;5.50;5.00;;;12.00;99.90;;;;;;5076995;28;20051;-73
2023/09/03 04:57:35;;;;;;;7.22;5.70;;;12.00;99.90;;;;;;5095240;28;20089;-73
2023/09/03 05:00:01;;;;;;;6.80;6.10;;;12.10;99.90;;;;;;5076170;28;20040;-73
2023/09/03 05:02:26;;;;;;;7.75;5.45;;;12.00;99.90;;;;;;5076540;28;20457;-73
2023/09/03 05:04:52;;;;;;;6.25;5.20;;;12.10;99.90;;;;;;5094708;28;20036;-73
2023/09/03 05:07:18;;;;;;;6.28;5.63;;;12.10;99.90;;;;;;5076157;28;20039;-73
2023/09/03 05:09:43;;;;;;;6.93;5.97;;;12.10;99.90;;;;;;5077066;28;20044;-74
2023/09/03 05:12:09;;;;;;;7.50;6.60;;;12.00;99.90;;;;;;5076534;28;20051;-73
2023/09/03 05:14:34;;;;;;;7.97;6.28;;;12.10;99.90;;;;;;5072546;28;20097;-73
2023/09/03 05:17:00;;;;;;;7.85;6.05;;;12.20;99.90;;;;;;5065761;28;20047;-73
2023/09/03 05:19:26;;;;;;;7.47;6.68;;;12.20;99.90;;;;;;5073799;28;20041;-73
2023/09/03 05:21:51;;;;;;;8.85;6.70;;;12.30;99.90;;;;;;5033915;28;20376;-73
2023/09/03 05:24:17;;;;;;;7.72;6.47;;;12.30;99.90;;;;;;5036754;28;20036;-73
2023/09/03 05:26:43;;;;;;;9.20;7.10;;;12.40;99.90;;;;;;5075980;28;20356;-74
2023/09/03 05:29:09;;;;;;;8.43;6.63;;;12.40;99.90;;;;;;5044330;28;20128;-73
2023/09/03 05:31:35;;;;;;;9.90;7.43;;;12.50;99.90;;;;;;5036649;28;20444;-73
2023/09/03 05:34:02;;;;;;;8.93;7.47;;;12.60;99.90;;;;;;5054031;28;20045;-73
2023/09/03 05:36:28;;;;;;;11.55;7.70;;;12.60;99.90;;;;;;5052414;28;20055;-73
2023/09/03 05:38:59;;;;;;;8.40;6.82;;;12.70;99.90;;;;;;5094546;28;20048;-73
2023/09/03 05:41:25;;;;;;;10.27;7.70;;;12.70;99.90;;;;;;5093643;28;20127;-73
2023/09/03 05:43:56;;;;;;;8.77;7.68;;;12.80;99.90;;;;;;5094138;28;20119;-73
2023/09/03 05:46:21;;;;;;;8.77;7.38;;;12.80;99.90;;;;;;5076290;28;20040;-73
2023/09/03 05:48:50;;;;;;;9.07;7.10;;;13.00;99.90;;;;;;5075532;28;20044;-73
2023/09/03 05:51:16;;;;;;;7.80;6.88;;;13.00;99.90;;;;;;5076650;28;20048;-74
2023/09/03 05:53:42;;;;;;;8.18;6.93;;;13.00;99.90;;;;;;5075983;28;20040;-73
2023/09/03 05:56:12;;;;;;;9.15;7.65;;;13.10;99.90;;;;;;5075136;28;20044;-73
2023/09/03 05:58:38;;;;;;;7.00;6.10;;;13.20;99.90;;;;;;5094238;28;20052;-73
2023/09/03 06:01:08;;;;;;;8.32;6.60;;;13.20;99.90;;;;;;5093651;28;20051;-74
2023/09/03 06:03:34;;;;;;;8.50;7.05;;;13.30;99.90;;;;;;5093147;28;20487;-73
2023/09/03 06:06:07;;;;;;;9.20;7.28;;;13.40;99.90;;;;;;5075566;28;20097;-74
2023/09/03 06:08:34;;;;;;;8.90;6.88;;;13.50;99.90;;;;;;5076057;28;20491;-73
2023/09/03 06:11:00;;;;;;;7.60;6.68;;;13.70;99.90;;;;;;5092255;28;20036;-73
2023/09/03 06:13:26;;;;;;;10.60;7.18;;;13.70;99.90;;;;;;5075773;28;20225;-73
2023/09/03 06:15:53;;;;;;;7.47;6.45;;;13.80;99.90;;;;;;5093532;28;20094;-73
2023/09/03 06:18:19;;;;;;;7.90;6.68;;;13.90;99.90;;;;;;5093054;28;20051;-73
2023/09/03 06:20:44;;;;;;;8.38;6.53;;;14.00;99.90;;;;;;5093872;28;20040;-72
2023/09/03 06:23:11;;;;;;;9.43;7.50;;;14.00;99.90;;;;;;5093313;28;20441;-73
2023/09/03 06:25:38;;;;;;;8.55;7.00;;;14.20;99.90;;;;;;5074713;28;20043;-73
2023/09/03 06:28:04;;;;;;;8.93;7.43;;;14.30;99.90;;;;;;5093344;28;20438;-73
2023/09/03 06:30:29;;;;;;;8.52;6.95;;;14.40;99.90;;;;;;5092652;28;20044;-72
2023/09/03 06:32:55;;;;;;;10.88;7.40;;;14.50;99.90;;;;;;5093284;28;20054;-73
2023/09/03 06:35:24;;;;;;;9.20;7.55;;;14.60;99.90;;;;;;5092670;28;20036;-73
2023/09/03 06:37:49;;;;;;;9.70;7.50;;;14.80;99.90;;;;;;5074257;28;20397;-73
2023/09/03 06:40:16;;;;;;;11.05;8.18;;;14.90;99.90;;;;;;5093528;28;20541;-73
2023/09/03 06:42:42;;;;;;;11.88;8.55;;;15.00;99.90;;;;;;5059801;28;20044;-73
2023/09/03 06:45:09;;;;;;;8.70;7.57;;;15.10;99.90;;;;;;5063502;28;20036;-73
2023/09/03 06:47:34;;;;;;;13.80;8.60;;;15.20;99.90;;;;;;5093224;28;20067;-74
2023/09/03 06:50:00;;;;;;;12.13;8.02;;;15.20;99.90;;;;;;5073488;28;20040;-73
2023/09/03 06:52:26;;;;;;;11.18;8.68;;;15.40;99.90;;;;;;5091231;28;20043;-74
2023/09/03 06:54:51;;;;;;;12.00;8.00;;;15.50;99.90;;;;;;5074013;28;20055;-73
2023/09/03 06:57:19;;;;;;;11.55;8.65;;;15.60;99.90;;;;;;5074658;28;20096;-73
2023/09/03 06:59:44;;;;;;;9.77;7.93;;;15.80;99.90;;;;;;5073675;28;20048;-73
2023/09/03 07:02:12;;;;;;;11.05;8.07;;;16.00;99.90;;;;;;5074270;28;20063;-73
2023/09/03 07:04:38;;;;;;;10.73;7.30;;;16.00;99.90;;;;;;5091873;28;20032;-74
2023/09/03 07:07:04;;;;;;;12.05;7.97;;;16.20;99.90;;;;;;5074235;28;20048;-74
2023/09/03 07:09:32;;;;;;;12.48;8.55;;;16.20;99.90;;;;;;5052394;28;20036;-72
2023/09/03 07:11:59;;;;;;;9.02;6.85;;;16.40;99.90;;;;;;5073526;28;20048;-72
2023/09/03 07:14:25;;;;;;;9.93;8.07;;;16.50;99.90;;;;;;5051840;28;20483;-73
2023/09/03 07:16:51;;;;;;;9.93;8.30;;;16.60;99.90;;;;;;5071589;28;20040;-73
2023/09/03 07:19:17;;;;;;;10.15;8.07;;;16.80;99.90;;;;;;5052943;28;20051;-73
2023/09/03 07:21:43;;;;;;;9.20;7.97;;;17.30;99.90;;;;;;5070654;28;20037;-73
2023/09/03 07:24:09;;;;;;;9.15;7.47;;;17.70;99.90;;;;;;5075078;28;20045;-73
2023/09/03 07:26:35;;;;;;;11.43;7.28;;;18.30;99.90;;;;;;5071165;28;20101;-73
2023/09/03 07:29:01;;;;;;;8.65;7.00;;;18.80;99.90;;;;;;5071517;28;20045;-74
2023/09/03 07:31:27;;;;;;;7.93;6.65;;;19.40;99.90;;;;;;5072639;28;20095;-74
2023/09/03 07:33:53;;;;;;;8.38;6.68;;;20.10;99.90;;;;;;5071398;28;20032;-73
2023/09/03 07:36:19;;;;;;;10.43;6.50;;;20.60;99.90;;;;;;5071123;28;20074;-74
2023/09/03 07:38:44;;;;;;;7.35;6.20;;;20.70;99.90;;;;;;5070935;28;20053;-73
2023/09/03 07:41:10;;;;;;;9.00;6.75;;;20.80;99.90;;;;;;5071319;28;20123;-73
2023/09/03 07:43:35;;;;;;;7.60;6.55;;;20.60;99.90;;;;;;5070822;28;20134;-73
2023/09/03 07:46:02;;;;;;;9.68;6.55;;;20.30;99.90;;;;;;5072030;28;20119;-74
2023/09/03 07:48:27;;;;;;;8.82;6.57;;;20.40;99.90;;;;;;5073594;28;20047;-72
2023/09/03 07:50:53;;;;;;;7.90;6.38;;;20.60;99.90;;;;;;5073998;28;20044;-73
2023/09/03 07:53:19;;;;;;;8.10;6.28;;;21.00;99.90;;;;;;5054842;28;20044;-73
2023/09/03 07:55:44;;;;;;;7.63;6.20;;;21.60;99.90;;;;;;5073108;28;20048;-73
2023/09/03 07:58:10;;;;;;;7.43;5.60;;;22.40;99.90;;;;;;5071128;28;20072;-74
2023/09/03 08:00:36;;;;;;;9.00;5.50;;;23.00;99.90;;;;;;5053683;28;20041;-74
2023/09/03 08:03:02;;;;;;;6.05;5.40;;;23.70;99.90;;;;;;5070667;28;20118;-74
2023/09/03 08:05:28;;;;;;;8.30;5.47;;;24.10;99.90;;;;;;5059331;28;20407;-74
2023/09/03 08:07:59;;;;;;;7.85;5.80;;;24.50;99.90;;;;;;5091001;28;20047;-72
2023/09/03 08:10:26;;;;;;;6.55;4.88;;;24.90;99.90;;;;;;5089570;28;20040;-73
2023/09/03 08:12:51;;;;;;;7.03;4.72;;;24.90;99.90;;;;;;5059934;28;20033;-72
2023/09/03 08:15:17;;;;;;;6.65;4.72;;;25.10;99.90;;;;;;5062430;28;20452;-74
2023/09/03 08:17:43;;;;;;;7.97;5.13;;;25.60;99.90;;;;;;5073283;28;20131;-74
2023/09/03 08:20:09;;;;;;;6.38;4.90;;;25.90;99.90;;;;;;5073812;28;20044;-74
2023/09/03 08:22:36;;;;;;;7.72;4.85;;;26.40;99.90;;;;;;5074302;28;20060;-71
2023/09/03 08:25:02;;;;;;;7.90;5.00;;;26.50;99.90;;;;;;5073470;28;20403;-70
2023/09/03 08:27:28;;;;;;;6.93;4.78;;;26.50;99.90;;;;;;5057821;28;20067;-73
2023/09/03 08:29:53;;;;;;;6.95;3.80;;;26.40;99.90;;;;;;5057552;28;20527;-71
2023/09/03 08:32:19;;;;;;;6.80;4.05;;;26.20;99.90;;;;;;5074854;28;20090;-70
2023/09/03 08:34:45;;;;;;;7.72;3.55;;;26.40;99.90;;;;;;5085929;28;20040;-71
2023/09/03 08:37:10;;;;;;;6.25;3.63;;;26.50;99.90;;;;;;5094415;28;20044;-75
2023/09/03 08:39:36;;;;;;;5.03;3.22;;;26.70;98.90;;;;;;5095543;28;20040;-75
2023/09/03 08:42:03;;;;;;;5.55;3.33;;;27.30;99.80;;;;;;5094211;28;20052;-72
2023/09/03 08:44:53;;;;;;;4.97;3.35;;;27.50;97.80;;;;;;5093470;28;20044;-70
2023/09/03 08:47:19;;;;;;;5.05;3.20;;;27.40;98.40;;;;;;5054188;28;20446;-73
2023/09/03 08:49:46;;;;;;;6.88;3.28;;;26.70;97.90;;;;;;5092894;28;20044;-70
2023/09/03 08:52:13;;;;;;;3.92;2.85;;;26.60;98.00;;;;;;5093754;28;20051;-73
2023/09/03 08:54:38;;;;;;;4.22;2.65;;;26.50;98.80;;;;;;5094458;28;20080;-71
2023/09/03 08:57:09;;;;;;;5.25;3.42;;;26.40;98.90;;;;;;5094386;28;20086;-70
2023/09/03 08:59:34;;;;;;;4.28;3.10;;;26.70;98.60;;;;;;5076882;28;20398;-70
2023/09/03 09:02:01;;;;;;;4.80;2.80;;;26.90;99.20;;;;;;5095008;28;20566;-73
2023/09/03 09:04:30;;;;;;;5.00;2.90;;;26.70;98.50;;;;;;5095166;28;20035;-70
2023/09/03 09:06:59;;;;;;;4.22;2.60;;;26.60;98.40;;;;;;5082636;28;20047;-73
2023/09/03 09:09:29;;;;;;;6.30;3.28;;;26.70;98.50;;;;;;5091959;28;20093;-76
2023/09/03 09:12:15;;;;;;;5.70;2.60;;;27.40;97.90;;;;;;5094527;28;20048;-77
2023/09/03 09:15:00;;;;;;;4.28;2.35;;;27.60;97.80;;;;;;5071897;28;20410;-77
2023/09/03 09:17:28;;;;;;;4.18;2.50;;;29.00;95.70;;;;;;5093087;28;20055;-74
2023/09/03 09:19:59;;;;;;;5.20;2.75;;;28.90;95.30;;;;;;5073570;28;20048;-75
2023/09/03 09:22:27;;;;;;;5.13;2.80;;;28.90;95.70;;;;;;5090289;28;20070;-72
2023/09/03 09:24:55;;;;;;;4.20;2.90;;;28.90;95.10;;;;;;5059431;28;20552;-74
2023/09/03 09:27:22;;;;;;;4.43;2.28;;;29.00;95.10;;;;;;5057819;28;20047;-72
2023/09/03 09:29:47;;;;;;;4.47;2.70;;;28.90;94.90;;;;;;5055929;28;20048;-72
2023/09/03 09:32:23;;;;;;;3.90;2.40;;;29.20;95.10;;;;;;5056816;28;20415;-75
2023/09/03 09:34:50;;;;;;;4.53;2.50;;;29.60;94.20;;;;;;5055577;28;20150;-72
2023/09/03 09:37:16;;;;;;;4.72;1.60;;;29.80;93.90;;;;;;5074771;28;20048;-75
2023/09/03 09:39:43;;;;;;;4.15;1.70;;;29.60;92.70;;;;;;5075067;28;20093;-73
2023/09/03 09:42:12;;;;;;;2.63;1.50;;;30.10;93.90;;;;;;5063836;28;20063;-71
2023/09/03 09:44:38;;;;;;;4.38;1.92;;;29.60;92.40;;;;;;5094815;28;20048;-73
2023/09/03 09:47:25;;;;;;;4.25;1.92;;;29.00;93.10;;;;;;5076130;28;20047;-72
2023/09/03 09:49:51;;;;;;;5.35;2.22;;;29.00;93.20;;;;;;5074603;28;20037;-72
2023/09/03 09:52:18;;;;;;;4.40;2.17;;;28.90;93.40;;;;;;5065973;28;20047;-71
2023/09/03 09:54:46;;;;;;;4.22;2.25;;;29.80;93.70;;;;;;5075075;28;20047;-72
2023/09/03 09:57:21;;;;;;;3.70;2.25;;;29.60;93.80;;;;;;5093920;28;20048;-72
2023/09/03 10:00:04;;;;;;;3.83;2.03;;;28.60;94.20;;;;;;5093820;28;20387;-72
2023/09/03 10:02:30;;;;;;;4.18;1.80;;;28.10;95.40;;;;;;5092386;28;20052;-75
2023/09/03 10:04:56;;;;;;;5.68;1.90;;;27.60;95.40;;;;;;5093509;28;20051;-71
2023/09/03 10:07:22;;;;;;;3.80;1.60;;;27.80;95.60;;;;;;5083399;28;20055;-72
2023/09/03 10:09:48;;;;;;;3.15;1.60;;;28.60;94.20;;;;;;5072484;28;20041;-71
2023/09/03 10:12:14;;;;;;;3.03;1.45;;;29.20;94.80;;;;;;5060820;28;20043;-71
2023/09/03 10:14:40;;;;;;;3.67;1.55;;;29.40;93.70;;;;;;5075078;28;20457;-71
2023/09/03 10:17:13;;;;;;;5.72;1.77;;;29.60;93.80;;;;;;5079002;28;20040;-70
2023/09/03 10:20:04;;;;;;;2.95;1.60;;;29.60;93.80;;;;;;5075965;28;20501;-71
2023/09/03 10:22:31;;;;;;;4.07;1.52;;;29.20;93.60;;;;;;5075632;28;20129;-71
2023/09/03 10:25:06;;;;;;;2.80;1.30;;;28.60;94.40;;;;;;5070106;28;20047;-72
2023/09/03 10:27:35;;;;;;;4.65;1.20;;;29.20;94.30;;;;;;5083762;28;20380;-72
2023/09/03 10:30:06;;;;;;;2.63;1.15;;;29.80;94.60;;;;;;5092483;28;20043;-72
2023/09/03 10:32:32;;;;;;;3.85;1.48;;;30.00;92.30;;;;;;5093190;28;20039;-72
2023/09/03 10:35:05;;;;;;;2.63;1.23;;;30.20;92.50;;;;;;5075376;28;20135;-72
2023/09/03 10:37:39;;;;;;;8.60;1.50;;;29.90;91.40;;;;;;5074723;28;20044;-72
2023/09/03 10:40:22;;;;;;;3.58;1.23;;;29.60;91.80;;;;;;5075256;28;20072;-72
2023/09/03 10:42:52;;;;;;;4.57;1.35;;;30.20;92.70;;;;;;5072400;28;20044;-72
2023/09/03 10:45:18;;;;;;;4.00;1.50;;;30.80;92.20;;;;;;5084476;28;20433;-72
2023/09/03 10:47:56;;;;;;;2.92;1.52;;;30.50;92.40;;;;;;5054104;28;20032;-71
2023/09/03 10:50:44;;;;;;;3.13;1.40;;;30.60;92.20;;;;;;5035458;28;20500;-72
2023/09/03 10:53:35;;;;;;;4.80;1.25;;;31.10;91.40;;;;;;5034973;28;20045;-72
2023/09/03 10:56:16;;;;;;;2.65;1.20;;;31.10;91.30;;;;;;5056998;28;20373;-70
2023/09/03 10:58:53;;;;;;;4.50;1.40;;;31.30;92.20;;;;;;5052935;28;20097;-70
2023/09/03 11:01:20;;;;;;;3.30;1.50;;;31.00;92.00;;;;;;5072085;28;20052;-70
2023/09/03 11:03:48;;;;;;;6.18;1.40;;;31.40;92.50;;;;;;5070987;28;20051;-70
2023/09/03 11:06:21;;;;;;;3.00;1.40;;;31.80;92.10;;;;;;5052567;28;20809;-70
2023/09/03 11:08:48;;;;;;;2.45;1.30;;;32.00;91.50;;;;;;5059288;28;20057;-70
2023/09/03 11:11:21;;;;;;;3.78;1.40;;;32.00;90.90;;;;;;5071995;28;20112;-70
2023/09/03 11:13:51;;;;;;;3.72;1.30;;;31.80;90.20;;;;;;5072041;28;20045;-70
2023/09/03 11:16:17;;;;;;;3.05;1.10;;;32.00;90.40;;;;;;5069034;28;20067;-70
2023/09/03 11:18:49;;;;;;;2.20;1.20;;;32.00;90.80;;;;;;5072705;28;20044;-70
2023/09/03 11:21:15;;;;;;;2.35;1.10;;;32.10;89.90;;;;;;5071463;28;20037;-70
2023/09/03 11:23:56;;;;;;;2.50;1.17;;;32.30;89.40;;;;;;5071133;28;20048;-71
2023/09/03 11:26:29;;;;;;;2.28;1.20;;;32.40;90.60;;;;;;5070662;28;20367;-72
2023/09/03 11:28:55;;;;;;;2.38;1.20;;;32.50;90.70;;;;;;5072513;28;20049;-71
2023/09/03 11:31:22;;;;;;;3.20;1.40;;;32.30;90.40;;;;;;5071514;28;20052;-71
2023/09/03 11:33:48;;;;;;;3.00;1.30;;;32.50;90.90;;;;;;5070247;28;20052;-71
2023/09/03 11:36:14;;;;;;;3.45;1.42;;;32.50;88.90;;;;;;5071449;28;20049;-72
2023/09/03 11:38:39;;;;;;;2.53;1.10;;;32.10;89.80;;;;;;5070955;28;20055;-71
2023/09/03 11:41:06;;;;;;;2.42;1.20;;;32.10;90.00;;;;;;5071504;28;20051;-71
2023/09/03 11:43:41;;;;;;;2.45;1.10;;;32.20;88.70;;;;;;5071031;28;20048;-71
2023/09/03 11:46:14;;;;;;;;;;;32.40;86.90;;;;;;5072663;28;20041;-71
2023/09/03 11:48:40;;;;;;;2.45;1.13;;;32.40;87.10;;;;;;5072257;28;19920;-70
2023/09/03 11:51:06;;;;;;;2.50;1.10;;;32.80;87.00;;;;;;5070748;28;20056;-71
2023/09/03 11:53:42;;;;;;;4.68;1.48;;;32.90;89.10;;;;;;5072006;28;20041;-70
2023/09/03 11:56:15;;;;;;;2.20;1.10;;;32.60;87.10;;;;;;5070036;28;20130;-70
2023/09/03 11:58:42;;;;;;;2.63;1.30;;;32.70;85.60;;;;;;5076258;28;20036;-70
2023/09/03 12:01:08;;;;;;;3.90;1.20;;;32.70;87.10;;;;;;5094691;28;20051;-70
2023/09/03 12:03:35;;;;;;;3.22;1.25;;;33.00;84.80;;;;;;5078323;28;20487;-73
2023/09/03 12:06:03;;;;;;;2.75;1.23;;;33.30;85.30;;;;;;5062955;28;20074;-73
2023/09/03 12:08:32;;;;;;;2.38;1.05;;;32.50;86.30;;;;;;5075516;28;20120;-74
2023/09/03 12:10:58;;;;;;;3.13;1.10;;;32.30;88.30;;;;;;5075573;28;20458;-71
2023/09/03 12:13:31;;;;;;;2.38;1.10;;;32.20;88.00;;;;;;5062632;28;20074;-70
2023/09/03 12:16:09;;;;;;;3.28;1.17;;;32.00;89.50;;;;;;5073381;28;20080;-71
2023/09/03 12:18:36;;;;;;;4.07;1.33;;;32.20;86.90;;;;;;5074380;28;20060;-71
2023/09/03 12:21:07;;;;;;;3.42;1.15;;;31.90;87.10;;;;;;5074438;28;20495;-70
2023/09/03 12:23:35;;;;;;;3.03;1.20;;;31.80;87.30;;;;;;5075395;28;20107;-70
2023/09/03 12:26:01;;;;;;;2.55;1.10;;;31.70;86.10;;;;;;5075680;28;20094;-70
2023/09/03 12:28:37;;;;;;;2.30;1.02;;;32.00;87.50;;;;;;5076066;28;20048;-70
2023/09/03 12:31:05;;;;;;;3.33;1.30;;;32.20;85.50;;;;;;5074429;28;20049;-70
2023/09/03 12:33:34;;;;;;;3.67;1.10;;;32.30;88.90;;;;;;5075866;28;20049;-70
2023/09/03 12:36:11;;;;;;;1.90;0.90;;;32.50;89.60;;;;;;5075376;28;20059;-71
2023/09/03 12:38:49;;;;;;;3.30;1.42;;;32.80;90.70;;;;;;5074225;28;20045;-70
2023/09/03 12:41:15;;;;;;;3.95;1.90;;;33.00;87.90;;;;;;5075551;28;20440;-71
2023/09/03 12:43:41;;;;;;;2.75;1.27;;;32.90;86.10;;;;;;5074617;28;20052;-71
2023/09/03 12:46:08;;;;;;;3.10;1.20;;;32.40;86.30;;;;;;5075366;28;20054;-70
2023/09/03 12:48:36;;;;;;;3.15;1.30;;;32.00;87.90;;;;;;5076636;28;20083;-70
2023/09/03 12:51:02;;;;;;;4.20;1.20;;;31.70;89.00;;;;;;5084874;28;20036;-71
2023/09/03 12:53:28;;;;;;;3.35;1.30;;;31.10;89.70;;;;;;5074308;28;20049;-70